Time;durP1;ratioP1;P1;durP2;ratioP2;P2;SDS_P1;SDS_P2;PMS_P1;PMS_P2;Temp;Humidity;BMP_temperature;BMP_pressure;BME280_temperature;BME280_humidity;BME280_pressure;Samples;Min_cycle;Max_cycle;Signal;HPM_P1;HPM_P2
2023/11/14 00:02:04;;;;;;;10.60;3.22;;;;;;;10.04;77.00;98567.75;5003261;28;20057;-44
2023/11/14 00:04:31;;;;;;;7.35;2.85;;;;;;;10.01;76.56;98575.56;5005556;28;20042;-45
2023/11/14 00:07:01;;;;;;;6.38;2.55;;;;;;;9.98;76.58;98571.31;5007780;28;20052;-43
2023/11/14 00:09:30;;;;;;;9.27;3.42;;;;;;;9.97;77.08;98579.94;5000025;28;20491;-43
2023/11/14 00:11:57;;;;;;;11.68;2.75;;;;;;;9.89;76.89;98571.53;5004715;28;20466;-48
2023/11/14 00:14:24;;;;;;;9.55;2.65;;;;;;;9.90;77.34;98568.06;5001201;28;20074;-46
2023/11/14 00:16:51;;;;;;;10.35;2.38;;;;;;;9.90;76.39;98568.06;5004111;28;20058;-50
2023/11/14 00:19:19;;;;;;;6.78;2.65;;;;;;;9.89;76.47;98566.34;5003562;28;20173;-45
2023/11/14 00:21:46;;;;;;;6.70;2.88;;;;;;;9.83;76.35;98571.69;5001947;28;20045;-54
2023/11/14 00:24:13;;;;;;;10.88;2.28;;;;;;;9.85;76.96;98575.06;5007708;28;20498;-46
2023/11/14 00:26:40;;;;;;;9.63;2.85;;;;;;;9.81;76.94;98578.63;5006884;28;20045;-50
2023/11/14 00:29:07;;;;;;;6.85;2.50;;;;;;;9.80;77.02;98588.13;5007273;28;20414;-46
2023/11/14 00:31:34;;;;;;;9.50;4.20;;;;;;;9.79;76.55;98595.91;5006987;28;20108;-46
2023/11/14 00:34:01;;;;;;;8.05;2.67;;;;;;;9.76;77.27;98608.00;5000005;28;20070;-49
2023/11/14 00:36:28;;;;;;;11.32;2.58;;;;;;;9.77;76.89;98627.81;5006415;28;20088;-42
2023/11/14 00:38:59;;;;;;;10.00;3.38;;;;;;;9.72;77.13;98637.41;4999582;28;20124;-49
2023/11/14 00:41:27;;;;;;;8.63;2.78;;;;;;;9.76;76.93;98643.34;5004787;28;20510;-49
2023/11/14 00:43:53;;;;;;;6.97;2.92;;;;;;;9.76;76.81;98628.69;4996538;28;20062;-42
2023/11/14 00:46:20;;;;;;;9.68;2.63;;;;;;;9.75;76.81;98628.72;5001805;28;20707;-43
2023/11/14 00:48:47;;;;;;;12.60;3.28;;;;;;;9.73;77.31;98633.94;4999463;28;20042;-44
2023/11/14 00:51:14;;;;;;;12.73;3.28;;;;;;;9.71;76.98;98622.78;5003620;28;20042;-43
2023/11/14 00:53:40;;;;;;;11.65;2.70;;;;;;;9.72;77.59;98621.91;5004813;28;20100;-51
2023/11/14 00:56:10;;;;;;;15.27;3.13;;;;;;;9.71;76.87;98622.78;5006970;28;20046;-44
2023/11/14 00:58:37;;;;;;;13.73;3.38;;;;;;;9.71;77.59;98614.16;5007580;28;20042;-49
2023/11/14 01:01:04;;;;;;;16.83;3.53;;;;;;;9.72;77.55;98621.03;5002627;28;20064;-40
2023/11/14 01:03:31;;;;;;;12.65;4.30;;;;;;;9.69;77.82;98616.78;5010387;28;20049;-44
2023/11/14 01:05:58;;;;;;;17.73;3.00;;;;;;;9.68;77.73;98625.44;5008344;28;20435;-49
2023/11/14 01:08:25;;;;;;;12.23;2.63;;;;;;;9.69;77.95;98621.97;5006011;28;20057;-50
2023/11/14 01:10:51;;;;;;;14.57;3.47;;;;;;;9.70;78.11;98623.69;4996966;28;20054;-48
2023/11/14 01:13:18;;;;;;;10.02;4.00;;;;;;;9.72;77.89;98627.06;5004567;28;20128;-48
2023/11/14 01:15:45;;;;;;;14.77;3.15;;;;;;;9.72;78.33;98632.25;5007818;28;20054;-43
2023/11/14 01:18:11;;;;;;;18.65;4.70;;;;;;;9.71;78.80;98625.38;5002391;28;20072;-42
2023/11/14 01:20:38;;;;;;;11.70;2.03;;;;;;;9.74;78.37;98629.63;5008807;28;20686;-45
2023/11/14 01:23:05;;;;;;;12.65;3.05;;;;;;;9.73;77.66;98631.34;5009641;28;20144;-46
2023/11/14 01:25:32;;;;;;;10.63;2.22;;;;;;;9.75;78.85;98636.50;5001238;28;20050;-49
2023/11/14 01:27:59;;;;;;;15.23;3.47;;;;;;;9.80;78.50;98633.81;5006369;28;20046;-50
2023/11/14 01:30:25;;;;;;;11.27;3.42;;;;;;;9.81;78.74;98638.94;5003879;28;20042;-49
2023/11/14 01:32:53;;;;;;;14.52;3.35;;;;;;;9.80;78.82;98633.81;5001314;28;20057;-50
2023/11/14 01:35:19;;;;;;;13.77;4.07;;;;;;;9.82;79.05;98632.03;5003903;28;20050;-47
2023/11/14 01:37:46;;;;;;;7.93;3.10;;;;;;;9.84;78.75;98630.28;5005865;28;20070;-46
2023/11/14 01:40:13;;;;;;;10.38;1.75;;;;;;;9.81;78.41;98635.50;5004369;28;20472;-50
2023/11/14 01:42:40;;;;;;;10.50;2.75;;;;;;;9.84;78.74;98635.44;5007743;28;20045;-45
2023/11/14 01:45:07;;;;;;;14.23;3.08;;;;;;;9.85;78.68;98648.34;5009029;28;20506;-47
2023/11/14 01:47:33;;;;;;;12.05;3.17;;;;;;;9.89;78.91;98659.44;5003457;28;20388;-45
2023/11/14 01:50:02;;;;;;;9.68;2.92;;;;;;;9.87;78.40;98656.91;5009441;28;20041;-47
2023/11/14 01:52:29;;;;;;;8.80;2.67;;;;;;;9.90;79.19;98656.00;5011514;28;20046;-46
2023/11/14 01:54:56;;;;;;;9.77;2.63;;;;;;;9.90;78.25;98661.19;5011010;28;20072;-44
2023/11/14 01:57:22;;;;;;;7.03;3.00;;;;;;;9.86;78.99;98664.72;5010395;28;20050;-41
2023/11/14 01:59:49;;;;;;;17.38;2.67;;;;;;;9.93;78.28;98670.59;5009272;28;20050;-45
2023/11/14 02:02:17;;;;;;;10.90;3.17;;;;;;;9.90;78.37;98661.19;5007178;28;20502;-46
2023/11/14 02:04:46;;;;;;;9.57;3.28;;;;;;;9.92;78.08;98669.72;5006374;28;20049;-45
2023/11/14 02:07:12;;;;;;;10.00;2.75;;;;;;;9.90;78.28;98671.53;5008553;28;20116;-47
2023/11/14 02:09:39;;;;;;;11.50;3.00;;;;;;;9.92;78.15;98680.09;5009079;28;20125;-50
2023/11/14 02:12:06;;;;;;;10.95;2.72;;;;;;;9.91;78.29;98673.22;5007439;28;20054;-54
2023/11/14 02:14:33;;;;;;;9.73;3.25;;;;;;;9.92;78.86;98674.91;5009976;28;20053;-49
2023/11/14 02:17:00;;;;;;;4.05;2.30;;;;;;;9.89;78.94;98674.97;5001373;28;20057;-50
2023/11/14 02:19:27;;;;;;;17.35;2.28;;;;;;;9.89;78.99;98662.03;5007585;28;20042;-48
2023/11/14 02:21:53;;;;;;;14.52;3.60;;;;;;;9.90;78.78;98664.59;5008034;28;20152;-45
2023/11/14 02:24:21;;;;;;;13.57;3.20;;;;;;;9.91;78.82;98673.22;5004880;28;20061;-46
2023/11/14 02:26:49;;;;;;;11.95;3.55;;;;;;;9.90;78.72;98674.09;5009338;28;20053;-50
2023/11/14 02:29:19;;;;;;;11.20;3.35;;;;;;;9.89;79.18;98669.78;5001643;28;20042;-44
2023/11/14 02:31:48;;;;;;;16.00;3.38;;;;;;;9.90;78.13;98674.09;5007301;28;20042;-44
2023/11/14 02:34:15;;;;;;;11.73;3.08;;;;;;;9.89;79.20;98662.03;5006983;28;20053;-50
2023/11/14 02:36:42;;;;;;;13.90;4.20;;;;;;;9.90;78.37;98661.19;5006093;28;20140;-43
2023/11/14 02:39:09;;;;;;;12.73;2.75;;;;;;;9.89;78.82;98664.63;5003303;28;20061;-45
2023/11/14 02:41:35;;;;;;;13.82;3.50;;;;;;;9.86;79.59;98665.53;5005076;28;20050;-46
2023/11/14 02:44:02;;;;;;;14.65;3.63;;;;;;;9.89;79.29;98665.50;5006898;28;20128;-48
2023/11/14 02:46:29;;;;;;;15.52;3.78;;;;;;;9.90;79.15;98671.53;5007999;28;20052;-48
2023/11/14 02:48:57;;;;;;;19.67;3.80;;;;;;;9.91;79.43;98670.63;5002944;28;20050;-42
2023/11/14 02:51:23;;;;;;;18.20;4.28;;;;;;;9.93;79.00;98676.59;5008804;28;20136;-44
2023/11/14 02:53:50;;;;;;;13.52;3.78;;;;;;;9.98;79.22;98684.25;5009477;28;20060;-44
2023/11/14 02:56:16;;;;;;;21.95;3.75;;;;;;;10.02;79.34;98685.91;5008993;28;20045;-46
2023/11/14 02:58:43;;;;;;;14.23;3.88;;;;;;;10.02;79.93;98679.00;5009114;28;20659;-47
2023/11/14 03:01:10;;;;;;;15.00;4.00;;;;;;;10.07;79.05;98683.22;5008715;28;20046;-52
2023/11/14 03:03:36;;;;;;;13.00;4.00;;;;;;;10.09;79.29;98681.44;5008417;28;20045;-47
2023/11/14 03:06:04;;;;;;;17.83;3.65;;;;;;;10.10;79.25;98677.97;5009014;28;20129;-49
2023/11/14 03:08:31;;;;;;;14.05;3.83;;;;;;;10.09;79.77;98671.06;5008476;28;20145;-51
2023/11/14 03:10:58;;;;;;;27.92;5.53;;;;;;;10.07;79.73;98663.38;5008631;28;20034;-50
2023/11/14 03:13:25;;;;;;;9.32;3.25;;;;;;;10.05;79.00;98669.44;5008655;28;20529;-43
2023/11/14 03:15:51;;;;;;;16.52;3.10;;;;;;;10.06;79.79;98671.19;5007764;28;20060;-47
2023/11/14 03:18:18;;;;;;;12.07;3.30;;;;;;;10.05;80.01;98664.28;5007039;28;20045;-42
2023/11/14 03:20:45;;;;;;;16.92;2.53;;;;;;;10.07;79.76;98667.69;5009309;28;20439;-47
2023/11/14 03:23:12;;;;;;;19.27;3.63;;;;;;;10.09;79.59;98655.56;5008513;28;20053;-45
2023/11/14 03:25:38;;;;;;;13.88;3.50;;;;;;;10.12;78.97;98639.97;5007775;28;20504;-48
2023/11/14 03:28:05;;;;;;;11.50;2.67;;;;;;;10.11;80.18;98644.31;5008854;28;20458;-51
2023/11/14 03:30:32;;;;;;;17.17;3.05;;;;;;;10.10;79.14;98647.75;5008425;28;20054;-43
2023/11/14 03:32:59;;;;;;;7.95;3.33;;;;;;;10.08;79.71;98644.38;5008100;28;20547;-49
2023/11/14 03:35:27;;;;;;;14.00;3.45;;;;;;;10.03;79.96;98647.06;5006641;28;20056;-49
2023/11/14 03:37:54;;;;;;;14.35;4.82;;;;;;;10.02;79.93;98653.13;5003741;28;20037;-53
2023/11/14 03:40:20;;;;;;;8.93;2.83;;;;;;;10.00;79.82;98641.97;5001468;28;20089;-46
2023/11/14 03:42:47;;;;;;;17.13;3.83;;;;;;;9.99;79.47;98639.41;5003797;28;20053;-40
2023/11/14 03:45:14;;;;;;;15.10;3.38;;;;;;;9.98;80.17;98635.97;5000542;28;20053;-49
2023/11/14 03:47:42;;;;;;;14.10;3.60;;;;;;;9.94;79.53;98636.94;5005199;28;20050;-48
2023/11/14 03:50:09;;;;;;;11.32;2.83;;;;;;;9.92;79.93;98633.53;5005644;28;20096;-50
2023/11/14 03:52:36;;;;;;;15.18;3.13;;;;;;;9.90;79.33;98645.66;5009552;28;20499;-44
2023/11/14 03:55:05;;;;;;;15.13;4.43;;;;;;;9.89;80.04;98649.09;5006996;28;20056;-44
2023/11/14 03:57:32;;;;;;;15.48;2.90;;;;;;;9.85;80.18;98632.81;5004726;28;20141;-43
2023/11/14 03:59:58;;;;;;;14.25;3.97;;;;;;;9.85;79.47;98644.88;5004293;28;20112;-42
2023/11/14 04:02:26;;;;;;;16.15;3.05;;;;;;;9.82;79.79;98638.06;5003957;28;20045;-47
2023/11/14 04:04:53;;;;;;;11.57;2.85;;;;;;;9.77;79.92;98651.06;5007553;28;20133;-47
2023/11/14 04:07:20;;;;;;;10.57;2.92;;;;;;;9.79;80.13;98663.16;5004015;28;20049;-45
2023/11/14 04:09:46;;;;;;;9.73;3.60;;;;;;;9.77;80.64;98655.41;5006158;28;20046;-48
2023/11/14 04:12:13;;;;;;;9.52;2.33;;;;;;;9.77;80.24;98655.41;4998882;28;20046;-44
2023/11/14 04:14:40;;;;;;;12.50;3.25;;;;;;;9.76;80.34;98659.72;5001176;28;20057;-47
2023/11/14 04:17:07;;;;;;;17.73;3.95;;;;;;;9.76;80.48;98659.72;5005893;28;20042;-49
2023/11/14 04:19:35;;;;;;;12.60;2.85;;;;;;;9.72;80.65;98660.69;5000399;28;20053;-45
2023/11/14 04:22:02;;;;;;;7.60;2.47;;;;;;;9.71;80.47;98666.75;5002592;28;20081;-49
2023/11/14 04:24:31;;;;;;;7.20;2.90;;;;;;;9.71;80.11;98669.31;5004825;28;20046;-52
2023/11/14 04:26:59;;;;;;;9.65;2.72;;;;;;;9.71;80.71;98671.91;5009491;28;20050;-46
2023/11/14 04:29:26;;;;;;;14.05;3.03;;;;;;;9.70;80.70;98670.22;5007354;28;20054;-41
2023/11/14 04:31:52;;;;;;;11.35;3.22;;;;;;;9.71;80.41;98673.63;5005103;28;20054;-49
2023/11/14 04:34:19;;;;;;;19.15;3.25;;;;;;;9.71;80.61;98677.09;5011046;28;20049;-50
2023/11/14 04:36:46;;;;;;;11.85;3.15;;;;;;;9.72;80.43;98667.56;5008313;28;20049;-48
2023/11/14 04:39:13;;;;;;;13.75;3.47;;;;;;;9.72;80.56;98668.44;5008656;28;20061;-49
2023/11/14 04:41:42;;;;;;;15.88;3.13;;;;;;;9.70;79.91;98659.03;5009975;28;20048;-46
2023/11/14 04:44:11;;;;;;;7.80;3.55;;;;;;;9.67;80.47;98652.19;5009796;28;20046;-41
2023/11/14 04:46:42;;;;;;;16.48;3.25;;;;;;;9.67;80.70;98649.59;5006575;28;20415;-47
2023/11/14 04:49:10;;;;;;;13.23;3.70;;;;;;;9.67;80.37;98649.59;5009302;28;20050;-48
2023/11/14 04:51:37;;;;;;;10.68;3.20;;;;;;;9.66;80.92;98647.88;5009128;28;20406;-46
2023/11/14 04:54:03;;;;;;;18.95;3.50;;;;;;;9.65;80.66;98656.53;5008917;28;20042;-52
2023/11/14 04:56:30;;;;;;;13.55;3.83;;;;;;;9.64;80.61;98649.66;5007673;28;20049;-46
2023/11/14 04:58:57;;;;;;;13.80;3.00;;;;;;;9.62;81.04;98651.41;5008358;28;20038;-49
2023/11/14 05:01:23;;;;;;;16.95;3.72;;;;;;;9.63;80.63;98647.97;5009036;28;20472;-47
2023/11/14 05:03:50;;;;;;;15.90;2.85;;;;;;;9.62;80.41;98651.41;5010782;28;20050;-44
2023/11/14 05:06:17;;;;;;;14.68;3.28;;;;;;;9.61;80.79;98652.31;5010044;28;20050;-44
2023/11/14 05:08:43;;;;;;;9.60;2.92;;;;;;;9.60;80.63;98650.59;5009120;28;20053;-43
2023/11/14 05:11:10;;;;;;;16.67;3.83;;;;;;;9.59;81.13;98656.66;5010723;28;20048;-44
2023/11/14 05:13:39;;;;;;;15.95;3.38;;;;;;;9.59;81.47;98656.66;5010006;28;20054;-46
2023/11/14 05:16:06;;;;;;;13.88;3.83;;;;;;;9.58;80.83;98660.97;5006353;28;20074;-51
2023/11/14 05:18:47;;;;;;;16.75;2.95;;;;;;;9.57;80.89;98653.25;5002706;28;20046;-43
2023/11/14 05:21:14;;;;;;;15.75;4.00;;;;;;;9.55;80.83;98655.88;4996139;28;20105;-43
2023/11/14 05:23:40;;;;;;;15.88;2.92;;;;;;;9.58;80.67;98665.28;4998891;28;20068;-43
2023/11/14 05:26:07;;;;;;;17.45;4.03;;;;;;;9.56;80.99;98651.56;5006955;28;20069;-47
2023/11/14 05:28:36;;;;;;;15.88;4.47;;;;;;;9.58;80.74;98655.81;5006963;28;20042;-43
2023/11/14 05:31:03;;;;;;;18.90;3.63;;;;;;;9.56;81.06;98662.72;5002914;28;20119;-47
2023/11/14 05:33:31;;;;;;;8.00;3.60;;;;;;;9.56;80.54;98664.47;5001735;28;20058;-49
2023/11/14 05:35:57;;;;;;;17.05;3.35;;;;;;;9.57;81.13;98668.75;5009216;28;20049;-47
2023/11/14 05:38:24;;;;;;;21.85;3.92;;;;;;;9.55;81.07;98660.22;5005304;28;20053;-44
2023/11/14 05:40:51;;;;;;;16.65;3.40;;;;;;;9.55;80.89;98662.78;5000506;28;20194;-49
2023/11/14 05:43:19;;;;;;;6.65;4.05;;;;;;;9.51;80.96;98657.69;5007010;28;20049;-47
2023/11/14 05:45:46;;;;;;;14.77;3.38;;;;;;;9.52;81.03;98651.63;5001818;28;20041;-45
2023/11/14 05:48:14;;;;;;;16.23;3.65;;;;;;;9.54;80.64;98668.81;4996632;28;20053;-47
2023/11/14 05:50:42;;;;;;;13.48;3.15;;;;;;;9.54;80.42;98663.66;5004608;28;20096;-46
2023/11/14 05:53:09;;;;;;;18.38;2.80;;;;;;;9.51;80.90;98660.25;5007751;28;20068;-46
2023/11/14 05:55:36;;;;;;;14.00;2.88;;;;;;;9.51;80.60;98655.09;4997521;28;20099;-44
2023/11/14 05:58:03;;;;;;;10.63;3.38;;;;;;;9.49;80.71;98661.19;5010040;28;20054;-55
2023/11/14 06:00:31;;;;;;;13.73;3.35;;;;;;;9.48;80.18;98675.81;5007239;28;20049;-46
2023/11/14 06:02:57;;;;;;;13.05;3.90;;;;;;;9.47;81.13;98681.88;5006058;28;20049;-46
2023/11/14 06:05:24;;;;;;;18.80;4.75;;;;;;;9.47;80.63;98679.31;5002199;28;20060;-47
2023/11/14 06:07:51;;;;;;;14.60;4.45;;;;;;;9.45;80.50;98686.22;5007332;28;20521;-44
2023/11/14 06:10:18;;;;;;;14.90;2.85;;;;;;;9.44;80.16;98674.19;5008108;28;20125;-44
2023/11/14 06:12:44;;;;;;;12.77;2.72;;;;;;;9.43;80.55;98676.81;5009086;28;20045;-45
2023/11/14 06:15:11;;;;;;;20.55;3.72;;;;;;;9.41;80.59;98678.56;5004868;28;20053;-48
2023/11/14 06:17:38;;;;;;;17.80;3.17;;;;;;;9.40;80.79;98677.72;5011521;28;20080;-44
2023/11/14 06:20:07;;;;;;;13.13;4.10;;;;;;;9.40;80.03;98675.13;5001632;28;20042;-44
2023/11/14 06:22:34;;;;;;;24.52;3.85;;;;;;;9.39;80.41;98665.66;5004049;28;20166;-49
2023/11/14 06:25:03;;;;;;;16.77;3.13;;;;;;;9.37;80.15;98657.09;5005638;28;20059;-47
2023/11/14 06:27:30;;;;;;;10.05;1.27;;;;;;;9.35;80.59;98658.84;4998205;28;20459;-53
2023/11/14 06:29:57;;;;;;;14.93;3.35;;;;;;;9.34;80.00;98659.75;5002537;28;20058;-42
2023/11/14 06:32:24;;;;;;;19.83;3.58;;;;;;;9.32;80.38;98648.59;5001063;28;20050;-49
2023/11/14 06:34:52;;;;;;;15.48;3.80;;;;;;;9.32;80.41;98639.09;5005744;28;20046;-45
2023/11/14 06:37:19;;;;;;;20.92;4.00;;;;;;;9.30;80.38;98634.84;5008824;28;20120;-46
2023/11/14 06:39:47;;;;;;;16.17;4.43;;;;;;;9.30;80.48;98635.72;5003545;28;20054;-51
2023/11/14 06:42:14;;;;;;;19.80;4.07;;;;;;;9.33;80.85;98655.47;5004402;28;20038;-47
2023/11/14 06:44:44;;;;;;;17.52;3.33;;;;;;;9.36;80.73;98648.50;5003600;28;20072;-48
2023/11/14 06:47:12;;;;;;;22.27;3.75;;;;;;;9.39;80.36;98645.00;4999003;28;20389;-48
2023/11/14 06:49:39;;;;;;;16.90;3.67;;;;;;;9.42;80.77;98655.28;5007174;28;20046;-41
2023/11/14 06:52:06;;;;;;;17.95;3.35;;;;;;;9.45;80.49;98655.22;5008198;28;20042;-46
2023/11/14 06:54:33;;;;;;;18.88;3.53;;;;;;;9.50;80.62;98645.63;5006111;28;20046;-46
2023/11/14 06:57:00;;;;;;;16.58;3.95;;;;;;;9.54;81.22;98638.66;5005120;28;20053;-52
2023/11/14 06:59:30;;;;;;;18.70;3.22;;;;;;;9.57;81.23;98638.59;5005843;28;20065;-52
2023/11/14 07:01:57;;;;;;;19.23;4.47;;;;;;;9.59;80.65;98646.34;5007913;28;20119;-51
2023/11/14 07:04:25;;;;;;;22.58;3.45;;;;;;;9.58;81.09;98635.13;5003792;28;20073;-45
2023/11/14 07:06:52;;;;;;;13.82;3.33;;;;;;;9.56;80.46;98638.63;5001851;28;20128;-47
2023/11/14 07:09:21;;;;;;;17.30;5.75;;;;;;;9.54;81.13;98637.81;5005450;28;20488;-46
2023/11/14 07:11:49;;;;;;;14.27;3.55;;;;;;;9.50;80.37;98630.09;5001925;28;20112;-48
2023/11/14 07:14:19;;;;;;;23.15;4.28;;;;;;;9.50;80.58;98624.94;5002920;28;20415;-49
2023/11/14 07:16:46;;;;;;;15.73;4.40;;;;;;;9.49;80.61;98627.59;5004900;28;20057;-46
2023/11/14 07:19:16;;;;;;;;;;;;;;;9.36;81.35;98630.41;5001619;28;20057;-43
2023/11/14 07:21:46;;;;;;;16.10;3.92;;;;;;;9.42;81.15;98624.25;4996530;28;20326;-47
2023/11/14 07:24:13;;;;;;;13.55;3.90;;;;;;;9.44;80.73;98626.81;4998452;28;20052;-51
2023/11/14 07:26:43;;;;;;;16.17;4.30;;;;;;;9.44;80.72;98626.81;4997496;28;20052;-42
2023/11/14 07:29:12;;;;;;;23.42;5.25;;;;;;;9.45;81.05;98631.09;4998341;28;20458;-46
2023/11/14 07:31:40;;;;;;;23.30;5.80;;;;;;;9.45;80.73;98638.84;4997537;28;20388;-44
2023/11/14 07:34:07;;;;;;;23.55;3.78;;;;;;;9.46;80.68;98636.22;4995916;28;20053;-49
2023/11/14 07:36:34;;;;;;;12.32;2.90;;;;;;;9.47;81.11;98634.50;4999401;28;20054;-49
2023/11/14 07:39:01;;;;;;;19.42;4.32;;;;;;;9.49;81.34;98631.00;4998839;28;20081;-45
2023/11/14 07:41:28;;;;;;;16.35;3.17;;;;;;;9.53;81.44;98642.16;5006774;28;20053;-47
2023/11/14 07:43:55;;;;;;;21.23;4.03;;;;;;;9.55;81.47;98644.69;5005431;28;20053;-49
2023/11/14 07:46:22;;;;;;;14.93;2.00;;;;;;;9.59;81.16;98648.91;4997875;28;20458;-40
2023/11/14 07:48:49;;;;;;;15.73;3.35;;;;;;;9.61;81.36;98642.81;5006918;28;20128;-51
2023/11/14 07:51:16;;;;;;;15.38;3.97;;;;;;;9.65;82.04;98648.78;5005049;28;20483;-49
2023/11/14 07:53:46;;;;;;;13.88;4.03;;;;;;;9.68;81.26;98645.25;5004108;28;20144;-45
2023/11/14 07:56:14;;;;;;;16.13;4.22;;;;;;;9.72;80.86;98639.13;4998670;28;20045;-48
2023/11/14 07:58:41;;;;;;;10.82;2.88;;;;;;;9.73;81.43;98644.28;5001626;28;20050;-45
2023/11/14 08:01:09;;;;;;;25.15;4.28;;;;;;;9.76;81.24;98636.47;4995573;28;20077;-49
2023/11/14 08:03:35;;;;;;;17.45;4.63;;;;;;;9.79;81.62;98643.28;5002268;28;20049;-44
2023/11/14 08:06:03;;;;;;;26.35;6.97;;;;;;;9.81;81.50;98638.09;5004129;28;20073;-49
2023/11/14 08:08:29;;;;;;;27.25;4.60;;;;;;;9.86;80.91;98649.19;5006273;28;20123;-50
2023/11/14 08:10:56;;;;;;;21.65;4.70;;;;;;;9.87;81.47;98648.31;5009525;28;20057;-47
2023/11/14 08:13:23;;;;;;;29.48;6.68;;;;;;;9.92;81.51;98649.03;5002441;28;20563;-48
2023/11/14 08:15:50;;;;;;;44.05;11.25;;;;;;;9.93;81.43;98645.56;5003154;28;20050;-46
2023/11/14 08:18:16;;;;;;;45.70;14.63;;;;;;;9.97;81.13;98647.19;5004709;28;20494;-46
2023/11/14 08:20:43;;;;;;;26.75;6.60;;;;;;;10.01;80.89;98650.56;5007080;28;20129;-51
2023/11/14 08:23:10;;;;;;;18.20;4.57;;;;;;;10.05;81.37;98648.75;5006508;28;20057;-46
2023/11/14 08:25:37;;;;;;;22.17;6.15;;;;;;;10.07;81.02;98647.88;5003479;28;20042;-49
2023/11/14 08:28:04;;;;;;;16.77;3.65;;;;;;;10.11;80.85;98643.44;5006765;28;20042;-47
2023/11/14 08:30:31;;;;;;;18.25;4.95;;;;;;;10.13;81.32;98641.66;5004937;28;20077;-46
2023/11/14 08:32:58;;;;;;;19.02;5.20;;;;;;;10.15;80.82;98645.06;5001026;28;20045;-49
2023/11/14 08:35:25;;;;;;;13.95;4.15;;;;;;;10.18;81.06;98639.84;5006378;28;20116;-49
2023/11/14 08:37:53;;;;;;;18.63;4.90;;;;;;;10.21;81.19;98624.25;5005756;28;20057;-44
2023/11/14 08:40:25;;;;;;;16.65;4.05;;;;;;;10.24;80.85;98624.16;5004664;28;20075;-55
2023/11/14 08:42:53;;;;;;;19.55;5.78;;;;;;;10.26;81.02;98629.28;5010090;28;20050;-47
2023/11/14 08:45:24;;;;;;;;;;;;;;;10.19;80.65;98626.00;5008226;28;20150;-48
2023/11/14 08:47:51;;;;;;;11.63;3.50;;;;;;;10.29;80.91;98627.50;5011086;28;19929;-46
2023/11/14 08:50:18;;;;;;;19.05;3.85;;;;;;;10.34;80.76;98636.88;5004904;28;20073;-48
2023/11/14 08:52:45;;;;;;;14.52;4.38;;;;;;;10.37;80.35;98634.22;5009847;28;20459;-44
2023/11/14 08:55:12;;;;;;;17.48;3.13;;;;;;;10.39;79.94;98637.59;5007396;28;20104;-52
2023/11/14 08:57:39;;;;;;;13.93;3.35;;;;;;;10.41;80.96;98625.50;5008666;28;20046;-49
2023/11/14 09:00:09;;;;;;;14.20;3.58;;;;;;;10.43;80.14;98628.88;5002294;28;20050;-44
2023/11/14 09:02:37;;;;;;;12.13;2.10;;;;;;;10.44;80.26;98622.84;5002973;28;20407;-50
2023/11/14 09:05:04;;;;;;;10.98;5.03;;;;;;;10.45;80.07;98631.47;5000129;28;20527;-45
2023/11/14 09:07:31;;;;;;;18.02;3.33;;;;;;;10.47;79.67;98640.88;5007277;28;20422;-47
2023/11/14 09:09:58;;;;;;;19.80;6.53;;;;;;;10.48;79.92;98642.59;5005295;28;20058;-46
2023/11/14 09:12:25;;;;;;;16.48;3.65;;;;;;;10.51;80.56;98641.66;5005978;28;20057;-44
2023/11/14 09:14:51;;;;;;;30.80;9.82;;;;;;;10.53;81.04;98643.31;4999241;28;20535;-46
2023/11/14 09:17:18;;;;;;;20.58;6.15;;;;;;;10.54;80.09;98634.66;5001308;28;20057;-53
2023/11/14 09:19:46;;;;;;;57.60;17.92;;;;;;;10.58;80.29;98632.00;5000356;28;20098;-49
2023/11/14 09:22:13;;;;;;;30.98;7.90;;;;;;;10.58;79.89;98632.88;5000505;28;20626;-47
2023/11/14 09:24:39;;;;;;;24.20;7.45;;;;;;;10.60;79.91;98625.88;5008887;28;20419;-50
2023/11/14 09:27:06;;;;;;;15.45;3.42;;;;;;;10.61;79.75;98631.94;5000563;28;20054;-47
2023/11/14 09:29:33;;;;;;;21.40;4.18;;;;;;;10.62;80.08;98628.44;5007657;28;20411;-49
2023/11/14 09:32:02;;;;;;;14.52;3.90;;;;;;;10.64;79.78;98631.84;5001924;28;20049;-45
2023/11/14 09:34:30;;;;;;;17.02;3.03;;;;;;;10.66;80.14;98630.06;5006184;28;20042;-53
2023/11/14 09:36:57;;;;;;;13.85;3.40;;;;;;;10.68;80.18;98628.28;5008183;28;20045;-54
2023/11/14 09:39:23;;;;;;;9.57;2.60;;;;;;;10.69;80.68;98627.41;4996959;28;20081;-44
2023/11/14 09:41:54;;;;;;;12.05;3.30;;;;;;;10.70;80.72;98613.56;4997331;28;20072;-47
2023/11/14 09:44:21;;;;;;;13.63;3.25;;;;;;;10.72;80.46;98613.50;4994880;28;20050;-54
2023/11/14 09:46:50;;;;;;;12.88;3.08;;;;;;;10.73;79.81;98610.88;5001682;28;20512;-50
2023/11/14 09:49:17;;;;;;;15.43;4.55;;;;;;;10.77;79.75;98611.63;5001797;28;20054;-46
2023/11/14 09:51:45;;;;;;;18.33;3.85;;;;;;;10.79;80.77;98610.75;5000082;28;20049;-49
2023/11/14 09:54:15;;;;;;;13.65;2.08;;;;;;;10.85;80.40;98614.03;5011442;28;20490;-46
2023/11/14 09:56:47;;;;;;;;;;;;;;;10.78;80.82;98603.00;5003816;28;20052;-50
2023/11/14 09:59:14;;;;;;;22.13;3.15;;;;;;;10.86;79.99;98610.56;5008571;28;20415;-49
2023/11/14 10:01:42;;;;;;;10.90;3.42;;;;;;;10.91;79.87;98608.72;5005844;28;20034;-44
2023/11/14 10:04:10;;;;;;;14.13;3.40;;;;;;;10.93;80.50;98609.50;5006674;28;20049;-43
2023/11/14 10:06:40;;;;;;;20.92;2.40;;;;;;;10.96;79.82;98614.59;5003499;28;20467;-49
2023/11/14 10:09:09;;;;;;;17.58;2.97;;;;;;;10.99;80.41;98613.66;5000700;28;20403;-49
2023/11/14 10:11:42;;;;;;;20.13;2.25;;;;;;;10.99;79.67;98611.94;5007233;28;20422;-51
2023/11/14 10:14:42;;;;;;;17.10;3.40;;;;;;;10.99;80.31;98611.94;5004270;28;20054;-51
2023/11/14 10:17:12;;;;;;;21.95;4.63;;;;;;;11.04;79.78;98622.16;5003677;28;20507;-48
2023/11/14 10:19:58;;;;;;;17.75;3.70;;;;;;;11.02;80.33;98622.19;5006228;28;20045;-42
2023/11/14 10:22:27;;;;;;;20.08;3.78;;;;;;;11.08;80.30;98620.34;5008539;28;20072;-46
2023/11/14 10:24:54;;;;;;;8.90;3.58;;;;;;;11.10;79.29;98618.53;5000016;28;20427;-50
2023/11/14 10:27:31;;;;;;;15.73;3.45;;;;;;;11.12;79.35;98621.94;5007784;28;20084;-45
2023/11/14 10:29:59;;;;;;;19.38;3.25;;;;;;;11.15;80.12;98627.06;5007484;28;20690;-44
2023/11/14 10:32:27;;;;;;;19.58;4.45;;;;;;;11.19;79.91;98628.66;4997219;28;20054;-45
2023/11/14 10:34:54;;;;;;;11.82;3.72;;;;;;;11.22;80.10;98622.53;5005403;28;20053;-49
2023/11/14 10:37:31;;;;;;;18.00;3.47;;;;;;;11.23;80.58;98619.91;5002581;28;20050;-52
2023/11/14 10:39:59;;;;;;;18.95;4.20;;;;;;;11.27;80.03;98615.47;5002352;28;20092;-44
2023/11/14 10:42:26;;;;;;;15.73;4.10;;;;;;;11.29;79.58;98611.94;4999649;28;20569;-42
2023/11/14 10:44:59;;;;;;;15.63;3.95;;;;;;;11.30;79.73;98612.78;5008002;28;20686;-49
2023/11/14 10:47:43;;;;;;;16.95;3.95;;;;;;;11.29;80.15;98614.53;5001797;28;20503;-53
2023/11/14 10:50:30;;;;;;;13.90;2.97;;;;;;;11.30;79.35;98608.47;5003346;28;20049;-46
2023/11/14 10:52:59;;;;;;;17.67;3.63;;;;;;;11.32;79.39;98609.25;4998159;28;20046;-49
2023/11/14 10:55:26;;;;;;;14.88;4.18;;;;;;;11.34;79.52;98609.22;5004718;28;20064;-50
2023/11/14 10:57:54;;;;;;;12.68;3.05;;;;;;;11.37;78.99;98616.91;4997820;28;20057;-48
2023/11/14 11:00:21;;;;;;;15.23;3.78;;;;;;;11.37;79.63;98616.06;4995378;28;20054;-47
2023/11/14 11:02:51;;;;;;;17.25;3.88;;;;;;;11.38;79.78;98615.19;4998818;28;20108;-53
2023/11/14 11:05:21;;;;;;;15.32;3.42;;;;;;;11.38;79.69;98612.59;4996829;28;20120;-42
2023/11/14 11:07:59;;;;;;;13.98;4.35;;;;;;;11.39;79.78;98614.28;4998973;28;20046;-50
2023/11/14 11:10:31;;;;;;;23.98;5.68;;;;;;;11.39;79.67;98609.09;4997034;28;20054;-48
2023/11/14 11:13:00;;;;;;;18.50;4.57;;;;;;;11.41;79.59;98612.47;5005929;28;20499;-45
2023/11/14 11:15:27;;;;;;;12.05;3.90;;;;;;;11.41;78.92;98613.34;5005496;28;20057;-52
2023/11/14 11:18:03;;;;;;;14.75;4.93;;;;;;;11.41;80.02;98615.06;5006119;28;20056;-50
2023/11/14 11:20:31;;;;;;;16.45;2.60;;;;;;;11.43;79.38;98614.16;5001305;28;20464;-53
2023/11/14 11:25:40;;;;;;;12.05;2.33;;;;;;;11.45;79.67;98611.50;5036636;27;20407;-42
2023/11/14 11:28:28;;;;;;;13.05;2.05;;;;;;;11.43;79.37;98621.06;5013088;28;20095;-47
2023/11/14 11:31:14;;;;;;;11.80;1.42;;;;;;;11.44;79.53;98617.56;5007152;28;20046;-49
2023/11/14 11:33:45;;;;;;;17.25;1.90;;;;;;;11.47;79.53;98617.50;5011372;28;20042;-47
2023/11/14 11:36:31;;;;;;;11.77;1.65;;;;;;;11.46;78.72;98610.63;5010803;28;20045;-44
2023/11/14 11:39:08;;;;;;;13.52;1.85;;;;;;;11.51;78.76;98610.47;5008322;28;20136;-47